createdAt,value
2022-10-25T00:00:36.435Z,41.83
2022-10-25T00:03:10.118Z,43.45
2022-10-25T00:05:43.383Z,42.17
2022-10-25T00:08:15.974Z,41.13
2022-10-25T00:10:49.537Z,45.03
2022-10-25T00:13:22.674Z,39.08
2022-10-25T00:15:55.733Z,38.88
2022-10-25T00:18:29.210Z,39.42
2022-10-25T00:21:06.593Z,35.17
2022-10-25T00:23:39.074Z,42.58
2022-10-25T00:26:12.563Z,41.90
2022-10-25T00:28:45.260Z,39.65
2022-10-25T00:31:18.879Z,42.55
2022-10-25T00:33:53.088Z,42.15
2022-10-25T00:36:27.051Z,37.30
2022-10-25T00:39:01.169Z,38.75
2022-10-25T00:41:34.967Z,37.88
2022-10-25T00:44:51.009Z,40.60
2022-10-25T00:47:41.218Z,38.55
2022-10-25T00:50:48.845Z,40.15
2022-10-25T00:53:37.104Z,36.10
2022-10-25T00:56:24.558Z,34.43
2022-10-25T00:59:01.039Z,36.20
2022-10-25T01:01:33.690Z,40.45
2022-10-25T01:04:10.691Z,39.00
2022-10-25T01:06:51.687Z,38.08
2022-10-25T01:09:33.355Z,39.83
2022-10-25T01:12:06.027Z,36.77
2022-10-25T01:14:43.313Z,33.95
2022-10-25T01:17:52.271Z,42.40
2022-10-25T01:21:12.150Z,38.58
2022-10-25T01:23:59.095Z,34.75
2022-10-25T01:27:09.317Z,37.13
2022-10-25T01:29:50.571Z,39.58
2022-10-25T01:32:40.133Z,36.23
2022-10-25T01:35:34.116Z,36.53
2022-10-25T01:38:26.594Z,38.13
2022-10-25T01:41:23.319Z,39.33
2022-10-25T01:44:25.729Z,39.27
2022-10-25T01:47:04.547Z,39.65
2022-10-25T01:49:55.326Z,36.03
2022-10-25T01:52:27.954Z,34.38
2022-10-25T01:55:00.951Z,38.65
2022-10-25T01:58:16.427Z,38.95
2022-10-25T02:00:56.813Z,37.55
2022-10-25T02:03:54.947Z,36.85
2022-10-25T02:06:37.991Z,40.17
2022-10-25T02:09:20.751Z,38.17
2022-10-25T02:11:53.178Z,40.55
2022-10-25T02:14:44.996Z,34.48
2022-10-25T02:17:25.009Z,37.23
2022-10-25T02:20:19.821Z,43.00
2022-10-25T02:22:53.260Z,38.27
2022-10-25T02:25:26.623Z,35.80
2022-10-25T02:28:00.564Z,41.60
2022-10-25T02:30:34.950Z,40.30
2022-10-25T02:33:07.426Z,37.10
2022-10-25T02:35:41.012Z,41.35
2022-10-25T02:38:13.843Z,39.00
2022-10-25T02:40:47.086Z,38.65
2022-10-25T02:43:19.911Z,36.17
2022-10-25T02:45:52.432Z,39.50
2022-10-25T02:48:25.113Z,41.63
2022-10-25T02:50:59.020Z,36.55
2022-10-25T02:53:31.876Z,42.13
2022-10-25T02:56:06.868Z,39.03
2022-10-25T02:58:41.154Z,37.73
2022-10-25T03:01:14.362Z,37.38
2022-10-25T03:03:48.302Z,40.40
2022-10-25T03:06:22.099Z,38.15
2022-10-25T03:08:54.611Z,45.30
2022-10-25T03:11:28.749Z,38.20
2022-10-25T03:14:01.787Z,37.23
2022-10-25T03:16:36.084Z,37.50
2022-10-25T03:19:09.745Z,37.67
2022-10-25T03:21:42.640Z,38.70
2022-10-25T03:24:15.089Z,41.02
2022-10-25T03:26:47.854Z,40.88
2022-10-25T03:29:20.939Z,35.98
2022-10-25T03:31:53.456Z,37.30
2022-10-25T03:34:26.126Z,35.92
2022-10-25T03:36:58.924Z,34.90
2022-10-25T03:39:31.343Z,35.20
2022-10-25T03:42:03.731Z,37.30
2022-10-25T03:44:37.332Z,37.95
2022-10-25T03:49:43.941Z,37.90
2022-10-25T03:52:16.401Z,41.30
2022-10-25T03:54:49.422Z,40.23
2022-10-25T03:57:22.973Z,39.38
2022-10-25T03:59:55.539Z,37.25
2022-10-25T04:02:28.894Z,37.58
2022-10-25T04:05:01.470Z,40.20
2022-10-25T04:07:34.216Z,38.98
2022-10-25T04:10:07.286Z,39.15
2022-10-25T04:12:40.786Z,35.90
2022-10-25T04:15:14.295Z,32.75
2022-10-25T04:17:48.753Z,37.07
2022-10-25T04:20:21.947Z,34.43
2022-10-25T04:22:58.200Z,33.65
2022-10-25T04:25:31.269Z,33.10
2022-10-25T04:28:04.731Z,33.83
2022-10-25T04:30:38.886Z,37.25
2022-10-25T04:33:12.896Z,31.05
2022-10-25T04:35:45.420Z,33.58
2022-10-25T04:38:17.920Z,37.80
2022-10-25T04:41:01.700Z,36.10
2022-10-25T04:43:34.636Z,32.30
2022-10-25T04:46:07.505Z,34.23
2022-10-25T04:48:42.603Z,34.08
2022-10-25T04:51:17.135Z,34.23
2022-10-25T04:53:49.813Z,30.75
2022-10-25T04:56:22.389Z,35.00
2022-10-25T04:58:54.812Z,37.13
2022-10-25T05:01:27.518Z,33.48
2022-10-25T05:04:00.552Z,34.08
2022-10-25T05:06:33.624Z,36.88
2022-10-25T05:09:08.059Z,40.83
2022-10-25T05:11:40.971Z,40.45
2022-10-25T05:14:15.190Z,38.65
2022-10-25T05:16:48.867Z,38.02
2022-10-25T05:19:21.252Z,40.25
2022-10-25T05:21:54.089Z,37.95
2022-10-25T05:24:27.337Z,41.02
2022-10-25T05:27:00.118Z,40.40
2022-10-25T05:29:32.966Z,40.12
2022-10-25T05:32:06.688Z,34.63
2022-10-25T05:34:39.201Z,36.77
2022-10-25T05:37:12.452Z,40.00
2022-10-25T05:39:45.761Z,39.85
2022-10-25T05:42:19.214Z,37.73
2022-10-25T05:44:52.290Z,35.33
2022-10-25T05:47:24.816Z,34.92
2022-10-25T05:49:58.199Z,37.05
2022-10-25T05:52:30.593Z,33.92
2022-10-25T05:55:04.182Z,35.08
2022-10-25T05:57:36.732Z,33.23
2022-10-25T06:00:09.901Z,32.65
2022-10-25T06:02:43.529Z,35.20
2022-10-25T06:05:16.547Z,34.23
2022-10-25T06:07:51.147Z,32.05
2022-10-25T06:10:24.533Z,33.67
2022-10-25T06:12:57.024Z,34.03
2022-10-25T06:15:29.835Z,33.60
2022-10-25T06:18:03.404Z,36.93
2022-10-25T06:20:38.336Z,30.85
2022-10-25T06:23:12.761Z,38.15
2022-10-25T06:25:45.193Z,31.62
2022-10-25T06:28:17.666Z,35.50
2022-10-25T06:30:50.072Z,33.45
2022-10-25T06:33:27.161Z,29.75
2022-10-25T06:35:59.733Z,29.98
2022-10-25T06:41:10.016Z,33.60
2022-10-25T06:43:42.521Z,30.77
2022-10-25T06:46:30.079Z,33.53
2022-10-25T06:49:05.119Z,29.12
2022-10-25T06:51:39.986Z,27.60
2022-10-25T06:54:13.033Z,32.63
2022-10-25T06:56:45.499Z,31.27
2022-10-25T06:59:20.744Z,30.75
2022-10-25T07:01:55.438Z,34.38
2022-10-25T07:04:28.089Z,27.80
2022-10-25T07:07:01.607Z,27.67
2022-10-25T07:09:34.747Z,28.57
2022-10-25T07:12:12.253Z,29.50
2022-10-25T07:14:42.946Z,27.35
2022-10-25T07:17:15.669Z,27.45
2022-10-25T07:19:48.133Z,30.17
2022-10-25T07:22:21.040Z,29.50
2022-10-25T07:24:53.496Z,29.12
2022-10-25T07:27:26.064Z,27.62
2022-10-25T07:29:58.525Z,28.07
2022-10-25T07:32:31.162Z,30.43
2022-10-25T07:35:05.099Z,28.23
2022-10-25T07:37:37.609Z,26.68
2022-10-25T07:40:11.106Z,30.80
2022-10-25T07:42:43.584Z,30.68
2022-10-25T07:45:20.337Z,32.45
2022-10-25T07:47:54.437Z,28.73
2022-10-25T07:50:28.134Z,28.90
2022-10-25T07:53:01.018Z,28.50
2022-10-25T07:55:35.026Z,25.82
2022-10-25T07:58:09.505Z,27.80
2022-10-25T08:00:42.299Z,32.15
2022-10-25T08:03:16.206Z,30.17
2022-10-25T08:05:49.436Z,26.25
2022-10-25T08:08:23.443Z,26.97
2022-10-25T08:10:56.357Z,26.50
2022-10-25T08:13:29.105Z,25.88
2022-10-25T08:16:02.541Z,26.73
2022-10-25T08:18:37.645Z,26.10
2022-10-25T10:11:18.828Z,23.62
2022-10-25T10:13:59.243Z,26.68
2022-10-25T10:16:44.772Z,22.20
2022-10-25T10:19:31.293Z,25.00
2022-10-25T10:22:16.299Z,27.05
2022-10-25T10:24:53.417Z,23.15
2022-10-25T10:27:29.676Z,25.50
2022-10-25T10:30:10.045Z,24.15
2022-10-25T10:32:46.345Z,25.02
2022-10-25T10:35:38.554Z,23.05
2022-10-25T10:38:18.659Z,22.70
2022-10-25T10:41:15.432Z,22.20
2022-10-25T10:43:48.308Z,23.52
2022-10-25T10:46:22.830Z,32.13
2022-10-25T10:48:57.218Z,27.30
2022-10-25T10:51:45.346Z,24.02
2022-10-25T10:54:27.882Z,25.57
2022-10-25T10:57:06.364Z,22.10
2022-10-25T10:59:57.005Z,26.02
2022-10-25T11:02:41.292Z,21.45
2022-10-25T11:05:37.736Z,26.25
2022-10-25T11:08:19.148Z,20.37
2022-10-25T11:17:20.990Z,25.37
2022-10-25T11:20:29.522Z,23.80
2022-10-25T11:23:11.303Z,27.35
2022-10-25T11:26:15.952Z,22.13
2022-10-25T11:29:26.886Z,29.50
2022-10-25T11:32:32.856Z,24.55
2022-10-25T11:35:29.333Z,25.52
2022-10-25T11:38:40.117Z,25.23
2022-10-25T11:41:33.152Z,25.72
2022-10-25T11:44:46.555Z,25.20
2022-10-25T11:48:05.196Z,21.42
2022-10-25T11:51:11.977Z,25.85
2022-10-25T11:54:21.680Z,27.02
2022-10-25T11:57:24.687Z,25.82
2022-10-25T12:00:07.994Z,26.57
2022-10-25T12:03:20.573Z,29.37
2022-10-25T12:06:18.119Z,24.98
2022-10-25T12:09:08.358Z,24.43
2022-10-25T12:11:48.434Z,25.05
2022-10-25T12:14:25.462Z,25.72
2022-10-25T12:16:58.866Z,23.85
2022-10-25T12:19:45.798Z,18.32
2022-10-25T12:22:26.190Z,18.87
2022-10-25T12:25:02.695Z,18.55
2022-10-25T12:27:36.151Z,17.77
2022-10-25T12:30:13.392Z,18.02
2022-10-25T12:32:53.115Z,15.85
2022-10-25T12:35:53.728Z,16.20
2022-10-25T12:38:42.016Z,15.10
2022-10-25T12:41:31.780Z,13.70
2022-10-25T12:44:12.284Z,12.25
2022-10-25T12:47:29.125Z,13.45
2022-10-25T12:50:34.797Z,16.60
2022-10-25T12:53:26.398Z,11.20
2022-10-25T12:56:55.754Z,13.22
2022-10-25T13:00:07.409Z,11.18
2022-10-25T13:03:08.368Z,12.78
2022-10-25T13:06:02.016Z,12.60
2022-10-25T13:08:34.956Z,13.20
2022-10-25T13:11:10.216Z,12.20
2022-10-25T13:13:57.938Z,13.45
2022-10-25T13:16:33.074Z,15.00
2022-10-25T13:22:10.038Z,15.08
2022-10-25T13:24:46.265Z,16.82
2022-10-25T13:27:22.590Z,17.42
2022-10-25T13:30:32.211Z,17.27
2022-10-25T13:33:29.588Z,18.45
2022-10-25T13:36:02.944Z,18.95
2022-10-25T13:38:39.603Z,16.45
2022-10-25T13:41:20.019Z,17.48
2022-10-25T13:44:05.388Z,14.38
2022-10-25T13:46:43.827Z,15.43
2022-10-25T13:49:36.339Z,19.73
2022-10-25T13:52:24.174Z,21.25
2022-10-25T13:54:58.250Z,20.77
2022-10-25T13:57:52.197Z,24.92
2022-10-25T14:00:32.228Z,20.72
2022-10-25T14:03:10.461Z,19.80
2022-10-25T14:06:03.381Z,20.90
2022-10-25T14:09:07.472Z,19.20
2022-10-25T14:11:49.901Z,25.12
2022-10-25T14:14:52.442Z,27.30
2022-10-25T14:17:35.960Z,28.00
2022-10-25T14:20:31.548Z,24.70
2022-10-25T14:23:07.453Z,25.90
2022-10-25T14:25:44.238Z,19.50
2022-10-25T14:28:31.600Z,23.22
2022-10-25T14:31:08.526Z,23.40
2022-10-25T14:33:56.675Z,23.20
2022-10-25T14:36:38.918Z,20.00
2022-10-25T14:39:32.098Z,24.80
2022-10-25T14:42:05.216Z,33.40
2022-10-25T14:44:50.239Z,30.43
2022-10-25T14:47:31.329Z,29.12
2022-10-25T14:52:39.538Z,30.27
2022-10-25T14:55:30.060Z,38.85
2022-10-25T14:58:03.546Z,32.93
2022-10-25T15:00:38.610Z,31.33
2022-10-25T15:03:12.369Z,33.73
2022-10-25T15:05:47.288Z,28.23
2022-10-25T15:08:22.741Z,29.75
2022-10-25T15:11:04.277Z,33.53
2022-10-25T15:13:48.285Z,31.73
2022-10-25T15:16:41.627Z,26.80
2022-10-25T15:19:20.964Z,30.32
2022-10-25T15:21:54.511Z,33.02
2022-10-25T15:24:29.930Z,29.48
2022-10-25T15:27:04.303Z,27.80
2022-10-25T15:32:28.705Z,29.50
2022-10-25T15:35:02.924Z,33.48
2022-10-25T15:37:36.108Z,30.95
2022-10-25T15:40:13.710Z,31.07
2022-10-25T15:42:47.170Z,33.53
2022-10-25T15:45:20.042Z,32.75
2022-10-25T15:47:54.233Z,32.55
2022-10-25T15:50:28.883Z,31.77
2022-10-25T15:53:01.352Z,29.87
2022-10-25T15:55:34.236Z,34.88
2022-10-25T15:58:09.861Z,29.30
2022-10-25T16:00:42.650Z,30.20
2022-10-25T16:03:26.158Z,26.62
2022-10-25T16:05:58.906Z,29.07
2022-10-25T16:08:31.620Z,33.38
2022-10-25T16:11:10.100Z,33.25
2022-10-25T16:13:43.773Z,31.07
2022-10-25T16:16:39.373Z,35.10
2022-10-25T16:19:07.155Z,32.33
2022-10-25T16:21:40.152Z,32.10
2022-10-25T16:24:15.274Z,31.90
2022-10-25T16:26:49.400Z,29.32
2022-10-25T16:29:25.805Z,35.52
2022-10-25T16:31:58.936Z,30.17
2022-10-25T16:34:34.020Z,30.90
2022-10-25T16:37:09.265Z,31.60
2022-10-25T16:39:41.866Z,32.78
2022-10-25T16:42:42.407Z,32.88
2022-10-25T16:45:26.265Z,31.37
2022-10-25T16:48:00.083Z,36.90
2022-10-25T16:50:36.077Z,34.45
2022-10-25T16:53:09.410Z,37.08
2022-10-25T16:55:42.177Z,44.07
2022-10-25T16:58:14.736Z,38.30
2022-10-25T17:00:47.315Z,41.10
2022-10-25T17:03:20.111Z,35.50
2022-10-25T17:05:56.052Z,40.33
2022-10-25T17:08:28.520Z,34.92
2022-10-25T17:11:02.036Z,37.05
2022-10-25T17:13:34.861Z,38.38
2022-10-25T17:16:09.617Z,39.00
2022-10-25T17:18:42.807Z,37.13
2022-10-25T17:21:19.193Z,35.90
2022-10-25T17:23:51.846Z,36.85
2022-10-25T17:26:24.244Z,40.15
2022-10-25T17:28:58.285Z,35.15
2022-10-25T17:31:33.124Z,33.78
2022-10-25T17:34:05.676Z,31.77
2022-10-25T17:36:38.953Z,29.75
2022-10-25T17:39:12.199Z,28.45
2022-10-25T17:41:46.377Z,28.42
2022-10-25T17:44:18.892Z,29.07
2022-10-25T17:46:52.590Z,26.12
2022-10-25T17:49:25.496Z,32.95
2022-10-25T17:51:58.138Z,30.92
2022-10-25T17:54:30.534Z,29.70
2022-10-25T17:57:04.432Z,28.23
2022-10-25T17:59:36.956Z,29.35
2022-10-25T18:02:12.340Z,28.40
2022-10-25T18:05:02.303Z,32.75
2022-10-25T18:07:20.998Z,27.32
2022-10-25T18:09:53.812Z,32.23
2022-10-25T18:12:27.287Z,29.20
2022-10-25T18:15:02.936Z,29.63
2022-10-25T18:17:37.937Z,30.20
2022-10-25T18:20:11.320Z,28.42
2022-10-25T18:22:45.530Z,26.65
2022-10-25T18:25:18.072Z,29.98
2022-10-25T18:27:51.954Z,30.80
2022-10-25T18:30:24.602Z,27.02
2022-10-25T18:32:58.156Z,26.40
2022-10-25T18:35:31.309Z,27.75
2022-10-25T18:38:03.736Z,25.62
2022-10-25T18:40:36.862Z,25.52
2022-10-25T18:43:10.607Z,25.92
2022-10-25T18:45:44.887Z,49.25
2022-10-25T18:48:18.743Z,31.48
2022-10-25T18:50:52.003Z,27.98
2022-10-25T18:53:24.397Z,25.72
2022-10-25T18:55:56.881Z,32.63
2022-10-25T18:58:35.220Z,26.12
2022-10-25T19:01:17.122Z,28.70
2022-10-25T19:03:53.308Z,25.52
2022-10-25T19:06:26.841Z,27.13
2022-10-25T19:08:59.603Z,26.05
2022-10-25T19:11:34.724Z,27.50
2022-10-25T19:14:07.477Z,26.20
2022-10-25T19:16:42.082Z,28.85
2022-10-25T19:19:15.702Z,26.40
2022-10-25T19:21:51.230Z,30.73
2022-10-25T19:24:24.057Z,27.07
2022-10-25T19:26:59.137Z,30.70
2022-10-25T19:29:31.602Z,32.73
2022-10-25T19:32:04.842Z,31.85
2022-10-25T19:34:40.192Z,29.02
2022-10-25T19:37:13.695Z,31.62
2022-10-25T19:39:46.249Z,32.58
2022-10-25T19:42:20.066Z,33.10
2022-10-25T19:44:55.664Z,33.23
2022-10-25T19:47:29.178Z,37.10
2022-10-25T19:50:03.308Z,30.88
2022-10-25T19:52:39.257Z,32.53
2022-10-25T19:55:11.684Z,31.27
2022-10-25T19:57:44.058Z,31.33
2022-10-25T20:00:18.340Z,31.85
2022-10-25T20:02:51.103Z,31.77
2022-10-25T20:05:26.530Z,36.58
2022-10-25T20:07:59.317Z,32.08
2022-10-25T20:10:32.508Z,31.00
2022-10-25T20:13:06.231Z,32.50
2022-10-25T20:15:38.761Z,30.30
2022-10-25T20:18:12.313Z,29.25
2022-10-25T20:20:45.512Z,29.45
2022-10-25T20:23:20.749Z,29.82
2022-10-25T20:25:56.652Z,30.27
2022-10-25T20:28:30.298Z,28.80
2022-10-25T20:31:04.166Z,28.83
2022-10-25T20:33:38.682Z,29.95
2022-10-25T20:36:13.163Z,28.77
2022-10-25T20:38:46.849Z,26.80
2022-10-25T20:41:26.518Z,26.45
2022-10-25T20:44:06.312Z,24.00
2022-10-25T20:46:43.264Z,26.23
2022-10-25T20:49:15.837Z,24.85
2022-10-25T20:51:50.219Z,26.05
2022-10-25T20:54:22.714Z,27.40
2022-10-25T20:56:56.298Z,24.00
2022-10-25T20:59:29.429Z,22.77
2022-10-25T21:02:01.992Z,23.50
2022-10-25T21:04:42.730Z,21.42
2022-10-25T21:07:09.102Z,22.13
2022-10-25T21:09:47.066Z,21.80
2022-10-25T21:12:16.317Z,22.48
2022-10-25T21:14:50.201Z,23.00
2022-10-25T21:17:23.332Z,21.52
2022-10-25T21:19:55.711Z,21.35
2022-10-25T21:22:28.319Z,20.08
2022-10-25T21:25:00.915Z,19.23
2022-10-25T21:27:33.802Z,20.90
2022-10-25T21:30:08.016Z,19.15
2022-10-25T21:32:42.573Z,18.90
2022-10-25T21:35:15.459Z,18.25
2022-10-25T21:37:50.996Z,17.55
2022-10-25T21:40:23.875Z,19.85
2022-10-25T21:42:59.170Z,20.82
2022-10-25T21:45:32.976Z,18.05
2022-10-25T21:48:06.097Z,18.98
2022-10-25T21:50:39.324Z,20.27
2022-10-25T21:53:11.818Z,19.77
2022-10-25T21:55:44.659Z,18.92
2022-10-25T21:58:17.149Z,19.45
2022-10-25T22:00:49.547Z,18.65
2022-10-25T22:03:24.277Z,18.00
2022-10-25T22:05:57.920Z,19.00
2022-10-25T22:08:30.501Z,19.02
2022-10-25T22:11:06.795Z,19.55
2022-10-25T22:13:41.758Z,17.85
2022-10-25T22:16:18.365Z,19.70
2022-10-25T22:18:54.436Z,18.82
2022-10-25T22:21:29.256Z,20.70
2022-10-25T22:24:01.617Z,19.87
2022-10-25T22:26:34.103Z,16.45
2022-10-25T22:29:10.315Z,17.73
2022-10-25T22:31:42.752Z,16.97
2022-10-25T22:34:15.394Z,18.35
2022-10-25T22:36:47.857Z,17.92
2022-10-25T22:39:21.084Z,18.48
2022-10-25T22:41:54.874Z,15.13
2022-10-25T22:44:27.536Z,12.90
2022-10-25T22:47:00.187Z,12.03
2022-10-25T22:49:34.005Z,10.82
2022-10-25T22:52:06.867Z,10.43
2022-10-25T22:54:39.263Z,10.68
2022-10-25T22:57:13.079Z,10.98
2022-10-25T22:59:45.501Z,10.80
2022-10-25T23:02:18.796Z,11.50
2022-10-25T23:04:52.214Z,10.90
2022-10-25T23:07:24.651Z,11.80
2022-10-25T23:09:58.393Z,10.30
2022-10-25T23:12:31.870Z,10.80
2022-10-25T23:15:05.271Z,9.10
2022-10-25T23:17:37.906Z,9.25
2022-10-25T23:20:10.934Z,8.55
2022-10-25T23:22:43.933Z,8.20
2022-10-25T23:25:16.565Z,7.55
2022-10-25T23:27:50.021Z,7.83
2022-10-25T23:30:22.618Z,6.92
2022-10-25T23:32:56.140Z,6.78
2022-10-25T23:35:29.220Z,7.37
2022-10-25T23:38:03.109Z,6.80
2022-10-25T23:40:36.062Z,7.27
2022-10-25T23:43:09.478Z,7.05
2022-10-25T23:45:43.272Z,7.35
2022-10-25T23:48:15.693Z,6.83
2022-10-25T23:50:48.125Z,7.33
2022-10-25T23:53:21.924Z,6.92
2022-10-25T23:55:54.908Z,8.28
2022-10-25T23:58:27.996Z,7.58
